Airfield :
LOGIN :

Register | Disclaimer

   EN    FR    IT 

 










Legend :    VFR   Marginal VFR   IFR   Intensive IFR   Very Intensive IFR
Visi :
Ceiling :
>= 8 km
>= 3000ft
5 to 8 km
1000 to 3000 ft
1500m to 5 km
500 to 1000 ft
800 to 1500m
200 to 500 ft
< 800m
< 200 ft
Symbols :   Thunderstorms  Fog  Heavy snow  Heavy precipitations  Wind > 20 kt
SIGMETs :     Misc.  Thunderstorms  Icing  Turbulence  Mountain Waves  Volcanic Ashes






- Airport Elevation : 656 ft


UUBC - Grabtsevo

CURRENT METAR :
  • 250930Z 12003MPS 090V150 CAVOK 21/11 Q1018 R31/CLRD60 NOSIG RMK QFE746/0995

EXPIRED METARs :
  • 250900Z 11003MPS 9000 NSC 20/11 Q1018 R31/CLRD60 NOSIG RMK QFE746/0995
  • 250830Z 13003MPS 090V150 CAVOK 19/10 Q1018 R31/CLRD60 NOSIG RMK QFE746/0995
  • 250800Z 12002MPS 090V150 CAVOK 18/10 Q1018 R31/CLRD60 NOSIG RMK QFE747/0996
  • 250730Z 13003MPS CAVOK 17/09 Q1018 R31/CLRD60 NOSIG RMK QFE747/0996
  • 250700Z 13003MPS CAVOK 16/09 Q1018 R31/CLRD60 NOSIG RMK QFE747/0996

TAF TAF UUBC
Valid from the 25 at 09:00 until the 25 at 18:00 UTC


250742Z 2509/2518 14003MPS 9000 SCT030
TEMPO 2509/2518 11003G08MPS



MET'MAP, your aeronautical weather chart ! - Copyright ORBIFLY December 2007 - Disclaimer

ORBIFLY MET'MAP TEAM :

Programming & Development : Alexandra Zaïnal
Concept & original design : Baudouin d'Aumeries
Assistance for programming : Marc-Olivier Méhu
Technical & hardware support : Manuel Goepfert

Contact : metmap@orbifly.com




SOURCES & CREDITS :

   NOAA